createdAt,value
2019-05-06T00:01:34.054Z,23.38
2019-05-06T00:03:38.499Z,22.20
2019-05-06T00:05:43.629Z,20.05
2019-05-06T00:07:54.343Z,22.02
2019-05-06T00:09:58.589Z,22.95
2019-05-06T00:12:03.998Z,22.48
2019-05-06T00:14:08.276Z,26.00
2019-05-06T00:16:14.362Z,27.13
2019-05-06T00:18:18.866Z,21.68
2019-05-06T00:20:24.419Z,28.30
2019-05-06T00:22:28.912Z,24.02
2019-05-06T00:24:37.620Z,27.42
2019-05-06T00:26:45.769Z,27.65
2019-05-06T00:28:54.334Z,21.52
2019-05-06T00:31:13.090Z,24.27
2019-05-06T00:33:14.873Z,24.95
2019-05-06T00:35:19.094Z,25.25
2019-05-06T00:37:24.096Z,28.75
2019-05-06T00:39:33.652Z,29.72
2019-05-06T00:41:38.071Z,22.95
2019-05-06T00:43:43.706Z,29.55
2019-05-06T00:45:47.634Z,23.40
2019-05-06T00:47:53.584Z,23.55
2019-05-06T00:49:57.761Z,25.72
2019-05-06T00:52:04.116Z,27.00
2019-05-06T00:54:14.153Z,25.48
2019-05-06T00:56:17.680Z,27.75
2019-05-06T00:58:23.800Z,21.40
2019-05-06T01:00:29.161Z,24.72
2019-05-06T01:02:34.262Z,28.15
2019-05-06T01:04:38.547Z,22.52
2019-05-06T01:06:44.059Z,28.17
2019-05-06T01:08:48.145Z,24.00
2019-05-06T01:10:54.534Z,27.93
2019-05-06T01:13:14.921Z,24.23
2019-05-06T01:15:20.876Z,21.48
2019-05-06T01:17:24.734Z,29.35
2019-05-06T01:19:28.896Z,29.63
2019-05-06T01:21:34.245Z,26.48
2019-05-06T01:23:43.918Z,26.07
2019-05-06T01:25:48.182Z,27.55
2019-05-06T01:27:53.898Z,25.97
2019-05-06T01:29:57.588Z,25.95
2019-05-06T01:32:03.707Z,29.10
2019-05-06T01:34:07.315Z,27.98
2019-05-06T01:36:11.151Z,28.87
2019-05-06T01:38:28.838Z,25.70
2019-05-06T01:40:34.614Z,30.97
2019-05-06T01:42:40.540Z,26.35
2019-05-06T01:44:44.412Z,28.55
2019-05-06T01:46:48.248Z,31.48
2019-05-06T01:48:53.592Z,28.10
2019-05-06T01:50:57.623Z,30.80
2019-05-06T01:53:01.828Z,23.05
2019-05-06T01:55:07.336Z,25.80
2019-05-06T01:57:11.196Z,22.00
2019-05-06T01:59:15.193Z,26.37
2019-05-06T02:01:19.359Z,24.52
2019-05-06T02:03:24.235Z,30.60
2019-05-06T02:05:28.389Z,29.00
2019-05-06T02:07:32.219Z,26.07
2019-05-06T02:09:36.413Z,24.85
2019-05-06T02:11:40.255Z,32.98
2019-05-06T02:13:44.999Z,30.75
2019-05-06T02:15:49.145Z,27.05
2019-05-06T02:17:55.128Z,25.27
2019-05-06T02:19:59.323Z,28.75
2019-05-06T02:22:10.705Z,29.10
2019-05-06T02:24:16.210Z,25.45
2019-05-06T02:26:20.557Z,33.92
2019-05-06T02:28:24.776Z,28.62
2019-05-06T02:30:39.535Z,25.62
2019-05-06T02:32:47.761Z,23.00
2019-05-06T02:34:56.063Z,23.35
2019-05-06T02:37:14.741Z,27.13
2019-05-06T02:39:19.630Z,24.18
2019-05-06T02:41:23.494Z,28.02
2019-05-06T02:43:27.762Z,23.92
2019-05-06T02:45:33.537Z,23.22
2019-05-06T02:47:42.745Z,26.45
2019-05-06T02:49:47.460Z,28.35
2019-05-06T02:51:53.438Z,33.50
2019-05-06T02:53:57.313Z,27.35
2019-05-06T02:56:04.021Z,25.72
2019-05-06T02:58:07.278Z,29.25
2019-05-06T03:00:14.621Z,27.00
2019-05-06T03:02:35.662Z,28.07
2019-05-06T03:04:24.033Z,28.55
2019-05-06T03:06:28.425Z,31.87
2019-05-06T03:08:32.976Z,30.08
2019-05-06T03:10:37.264Z,30.25
2019-05-06T03:12:43.056Z,26.82
2019-05-06T03:14:47.427Z,30.10
2019-05-06T03:16:53.737Z,23.65
2019-05-06T03:18:57.195Z,29.50
2019-05-06T03:21:08.465Z,29.15
2019-05-06T03:23:14.368Z,30.80
2019-05-06T03:25:23.894Z,27.48
2019-05-06T03:27:26.218Z,29.07
2019-05-06T03:29:33.122Z,25.08
2019-05-06T03:31:36.876Z,24.07
2019-05-06T03:34:03.404Z,29.72
2019-05-06T03:36:00.386Z,26.00
2019-05-06T03:37:53.262Z,26.07
2019-05-06T03:39:57.673Z,24.52
2019-05-06T03:42:04.666Z,24.77
2019-05-06T03:44:07.712Z,25.35
2019-05-06T03:46:23.333Z,27.80
2019-05-06T03:48:33.322Z,23.52
2019-05-06T03:50:37.644Z,25.32
2019-05-06T03:52:43.613Z,28.00
2019-05-06T03:54:47.877Z,25.37
2019-05-06T03:56:53.811Z,26.70
2019-05-06T03:58:59.411Z,25.23
2019-05-06T04:01:03.941Z,25.70
2019-05-06T04:03:08.158Z,28.92
2019-05-06T04:05:13.227Z,26.75
2019-05-06T04:07:19.228Z,34.15
2019-05-06T04:09:23.973Z,30.37
2019-05-06T04:11:28.634Z,31.82
2019-05-06T04:13:33.322Z,29.05
2019-05-06T04:15:48.596Z,28.67
2019-05-06T04:17:57.525Z,27.25
2019-05-06T04:20:19.536Z,28.38
2019-05-06T04:22:34.718Z,26.23
2019-05-06T04:24:44.026Z,29.63
2019-05-06T04:26:55.823Z,28.15
2019-05-06T04:29:00.036Z,26.15
2019-05-06T04:31:05.465Z,27.07
2019-05-06T04:33:14.100Z,29.52
2019-05-06T04:35:15.652Z,28.23
2019-05-06T04:37:20.055Z,27.82
2019-05-06T04:39:24.570Z,24.37
2019-05-06T04:41:28.993Z,24.72
2019-05-06T04:43:33.909Z,28.30
2019-05-06T04:45:38.339Z,28.02
2019-05-06T04:47:43.458Z,29.67
2019-05-06T04:49:47.378Z,30.70
2019-05-06T04:51:54.058Z,28.07
2019-05-06T04:53:57.823Z,26.33
2019-05-06T04:56:03.892Z,31.80
2019-05-06T04:58:08.020Z,28.00
2019-05-06T05:00:12.921Z,27.07
2019-05-06T05:02:17.875Z,31.52
2019-05-06T05:04:31.108Z,33.85
2019-05-06T05:06:27.939Z,30.75
2019-05-06T05:08:36.879Z,31.07
2019-05-06T05:10:48.632Z,31.97
2019-05-06T05:12:54.506Z,33.23
2019-05-06T05:15:03.132Z,24.57
2019-05-06T05:17:24.323Z,24.55
2019-05-06T05:19:32.573Z,26.85
2019-05-06T05:21:35.993Z,25.82
2019-05-06T05:23:40.379Z,27.25
2019-05-06T05:25:44.711Z,21.70
2019-05-06T05:27:48.877Z,23.07
2019-05-06T05:29:52.709Z,28.55
2019-05-06T05:31:56.566Z,23.38
2019-05-06T05:34:02.077Z,22.85
2019-05-06T05:36:06.455Z,27.77
2019-05-06T05:38:12.810Z,24.18
2019-05-06T05:40:16.456Z,24.63
2019-05-06T05:42:24.875Z,25.48
2019-05-06T05:44:32.379Z,24.40
2019-05-06T05:46:36.825Z,21.93
2019-05-06T05:48:58.852Z,21.73
2019-05-06T05:51:03.398Z,23.62
2019-05-06T05:53:07.693Z,23.73
2019-05-06T05:55:12.619Z,25.90
2019-05-06T05:57:17.675Z,26.20
2019-05-06T05:59:32.907Z,28.60
2019-05-06T06:01:37.061Z,24.60
2019-05-06T06:03:42.185Z,27.93
2019-05-06T06:05:47.107Z,29.90
2019-05-06T06:07:53.000Z,22.50
2019-05-06T06:10:14.170Z,24.82
2019-05-06T06:12:18.288Z,25.70
2019-05-06T06:14:43.708Z,25.37
2019-05-06T06:16:52.772Z,24.37
2019-05-06T06:18:58.653Z,25.15
2019-05-06T06:21:27.107Z,24.25
2019-05-06T06:23:32.381Z,27.67
2019-05-06T06:25:37.095Z,22.27
2019-05-06T06:27:52.123Z,23.98
2019-05-06T06:29:56.440Z,23.62
2019-05-06T06:32:16.571Z,20.70
2019-05-06T06:34:39.009Z,23.67
2019-05-06T06:36:53.348Z,21.48
2019-05-06T06:39:08.223Z,23.62
2019-05-06T06:41:12.433Z,25.45
2019-05-06T06:43:18.285Z,21.85
2019-05-06T06:45:23.036Z,18.65
2019-05-06T06:47:28.544Z,21.23
2019-05-06T06:49:32.946Z,16.07
2019-05-06T06:51:38.306Z,17.50
2019-05-06T06:53:42.417Z,20.17
2019-05-06T06:55:46.679Z,21.97
2019-05-06T06:57:57.911Z,19.62
2019-05-06T07:00:15.039Z,16.48
2019-05-06T07:02:40.228Z,17.05
2019-05-06T07:05:05.778Z,19.75
2019-05-06T07:07:12.813Z,18.52
2019-05-06T07:09:15.691Z,20.60
2019-05-06T07:11:19.543Z,16.67
2019-05-06T07:13:23.717Z,18.40
2019-05-06T07:15:27.820Z,14.13
2019-05-06T07:17:32.802Z,21.27
2019-05-06T07:19:42.233Z,18.30
2019-05-06T07:21:53.892Z,17.82
2019-05-06T07:23:59.532Z,22.20
2019-05-06T07:26:03.359Z,16.70
2019-05-06T07:28:07.547Z,22.67
2019-05-06T07:30:12.593Z,17.02
2019-05-06T07:32:16.407Z,17.70
2019-05-06T07:34:20.221Z,16.70
2019-05-06T07:36:24.378Z,17.77
2019-05-06T07:38:28.492Z,16.25
2019-05-06T07:40:32.763Z,14.23
2019-05-06T07:42:38.752Z,15.95
2019-05-06T07:44:44.515Z,23.07
2019-05-06T07:46:58.725Z,14.63
2019-05-06T07:49:03.420Z,15.45
2019-05-06T07:51:07.606Z,14.30
2019-05-06T07:53:13.266Z,15.95
2019-05-06T07:55:17.656Z,13.58
2019-05-06T07:57:22.031Z,14.00
2019-05-06T07:59:25.993Z,14.30
2019-05-06T08:01:29.891Z,17.33
2019-05-06T08:03:33.715Z,16.07
2019-05-06T08:05:51.566Z,15.23
2019-05-06T08:07:43.253Z,14.23
2019-05-06T08:09:47.149Z,13.23
2019-05-06T08:11:52.986Z,13.40
2019-05-06T08:13:56.425Z,14.13
2019-05-06T08:16:02.192Z,11.93
2019-05-06T08:18:05.575Z,9.97
2019-05-06T08:20:10.059Z,11.80
2019-05-06T08:22:15.609Z,10.53
2019-05-06T08:24:19.143Z,10.70
2019-05-06T08:26:22.728Z,14.10
2019-05-06T08:28:37.499Z,12.13
2019-05-06T08:30:32.411Z,13.37
2019-05-06T08:32:36.246Z,12.87
2019-05-06T08:34:42.172Z,12.13
2019-05-06T08:36:47.332Z,12.37
2019-05-06T08:39:02.768Z,15.73
2019-05-06T08:41:07.049Z,15.97
2019-05-06T08:43:13.142Z,8.53
2019-05-06T08:45:17.090Z,15.50
2019-05-06T08:47:22.353Z,11.12
2019-05-06T08:49:26.542Z,12.30
2019-05-06T08:51:33.162Z,7.72
2019-05-06T08:53:38.762Z,9.97
2019-05-06T08:55:53.062Z,8.93
2019-05-06T08:57:56.947Z,10.77
2019-05-06T09:00:02.879Z,14.20
2019-05-06T09:02:07.294Z,10.30
2019-05-06T09:04:13.729Z,9.10
2019-05-06T09:06:26.954Z,11.03
2019-05-06T09:08:23.012Z,11.10
2019-05-06T09:10:26.895Z,8.70
2019-05-06T09:12:32.891Z,13.87
2019-05-06T09:14:36.344Z,10.93
2019-05-06T09:16:40.332Z,7.57
2019-05-06T09:18:43.888Z,7.57
2019-05-06T09:20:47.766Z,11.23
2019-05-06T09:22:52.177Z,7.73
2019-05-06T09:24:56.095Z,10.13
2019-05-06T09:27:03.010Z,9.97
2019-05-06T09:29:08.638Z,10.93
2019-05-06T09:31:23.164Z,10.23
2019-05-06T09:33:28.703Z,8.27
2019-05-06T09:35:32.968Z,10.07
2019-05-06T09:37:36.827Z,11.50
2019-05-06T09:39:43.214Z,10.13
2019-05-06T09:41:48.961Z,11.77
2019-05-06T09:43:52.930Z,10.93
2019-05-06T09:45:56.838Z,8.57
2019-05-06T09:48:03.543Z,10.30
2019-05-06T09:50:12.703Z,8.53
2019-05-06T09:52:16.761Z,10.47
2019-05-06T09:54:23.618Z,10.33
2019-05-06T09:56:29.286Z,9.83
2019-05-06T09:58:35.234Z,7.30
2019-05-06T10:00:42.729Z,12.57
2019-05-06T10:02:49.408Z,5.97
2019-05-06T10:04:52.261Z,5.93
2019-05-06T10:06:59.936Z,8.43
2019-05-06T10:09:04.822Z,5.83
2019-05-06T10:11:07.702Z,8.63
2019-05-06T10:13:12.816Z,8.17
2019-05-06T10:15:17.401Z,8.33
2019-05-06T10:17:21.443Z,5.57
2019-05-06T10:19:25.360Z,8.47
2019-05-06T10:21:28.936Z,9.83
2019-05-06T10:23:32.890Z,8.30
2019-05-06T10:25:36.903Z,8.43
2019-05-06T10:27:42.398Z,8.37
2019-05-06T10:29:47.580Z,9.37
2019-05-06T10:31:53.177Z,11.93
2019-05-06T10:34:13.914Z,11.63
2019-05-06T10:36:18.697Z,9.90
2019-05-06T10:38:31.610Z,7.80
2019-05-06T10:40:55.196Z,9.37
2019-05-06T10:42:55.864Z,10.97
2019-05-06T10:45:08.068Z,8.90
2019-05-06T10:47:12.178Z,9.23
2019-05-06T10:49:15.816Z,9.40
2019-05-06T10:51:22.889Z,10.60
2019-05-06T10:53:26.619Z,12.03
2019-05-06T10:55:32.297Z,10.07
2019-05-06T10:57:40.541Z,8.03
2019-05-06T10:59:44.985Z,8.27
2019-05-06T11:01:50.518Z,7.57
2019-05-06T11:03:54.431Z,8.03
2019-05-06T11:05:58.322Z,7.43
2019-05-06T11:08:02.355Z,11.17
2019-05-06T11:10:06.750Z,5.73
2019-05-06T11:12:12.351Z,9.03
2019-05-06T11:14:15.892Z,7.70
2019-05-06T11:16:19.422Z,4.30
2019-05-06T11:18:23.491Z,6.13
2019-05-06T11:20:27.462Z,5.40
2019-05-06T11:22:32.736Z,5.50
2019-05-06T11:24:36.776Z,5.23
2019-05-06T11:26:42.802Z,6.90
2019-05-06T11:28:59.115Z,5.43
2019-05-06T11:31:09.303Z,4.73
2019-05-06T11:33:22.324Z,4.57
2019-05-06T11:35:43.651Z,5.50
2019-05-06T11:38:05.013Z,6.63
2019-05-06T11:40:09.229Z,2.93
2019-05-06T11:42:27.633Z,4.73
2019-05-06T11:44:18.762Z,4.47
2019-05-06T11:46:22.942Z,4.03
2019-05-06T11:48:26.785Z,4.70
2019-05-06T11:50:30.585Z,7.07
2019-05-06T11:52:34.813Z,3.67
2019-05-06T11:54:38.444Z,4.37
2019-05-06T11:56:50.728Z,4.27
2019-05-06T11:58:49.189Z,5.80
2019-05-06T12:00:53.084Z,3.47
2019-05-06T12:02:56.909Z,3.97
2019-05-06T12:05:02.316Z,6.50
2019-05-06T12:07:11.166Z,3.37
2019-05-06T12:09:16.600Z,3.40
2019-05-06T12:11:17.733Z,4.70
2019-05-06T12:13:22.961Z,2.80
2019-05-06T12:15:26.830Z,6.57
2019-05-06T12:17:30.693Z,5.40
2019-05-06T12:19:34.580Z,4.20
2019-05-06T12:21:38.105Z,3.17
2019-05-06T12:23:44.924Z,5.27
2019-05-06T12:25:48.154Z,5.20
2019-05-06T12:27:52.591Z,4.97
2019-05-06T12:29:56.604Z,4.50
2019-05-06T12:32:03.641Z,6.13
2019-05-06T12:34:07.390Z,4.90
2019-05-06T12:36:17.521Z,3.43
2019-05-06T12:38:30.343Z,4.20
2019-05-06T12:40:28.048Z,2.90
2019-05-06T12:42:43.166Z,3.43
2019-05-06T12:44:48.899Z,3.83
2019-05-06T12:46:54.061Z,5.60
2019-05-06T12:48:57.939Z,3.77
2019-05-06T12:51:03.398Z,3.73
2019-05-06T12:53:06.995Z,2.83
2019-05-06T12:55:18.329Z,3.80
2019-05-06T12:57:16.843Z,2.67
2019-05-06T12:59:22.320Z,2.97
2019-05-06T13:01:26.382Z,4.33
2019-05-06T13:03:32.544Z,3.40
2019-05-06T13:05:35.613Z,4.33
2019-05-06T13:07:42.064Z,3.30
2019-05-06T13:09:45.706Z,2.83
2019-05-06T13:11:49.599Z,3.67
2019-05-06T13:14:00.100Z,2.87
2019-05-06T13:15:59.052Z,4.23
2019-05-06T13:18:07.025Z,4.47
2019-05-06T13:20:08.667Z,4.03
2019-05-06T13:22:14.136Z,3.40
2019-05-06T13:24:18.047Z,4.20
2019-05-06T13:26:22.369Z,4.70
2019-05-06T13:28:30.462Z,3.33
2019-05-06T13:30:33.131Z,3.13
2019-05-06T13:32:38.788Z,4.07
2019-05-06T13:34:42.595Z,4.10
2019-05-06T13:36:46.490Z,4.00
2019-05-06T13:39:01.410Z,4.67
2019-05-06T13:40:57.652Z,3.17
2019-05-06T13:43:05.966Z,5.03
2019-05-06T13:45:12.011Z,4.43
2019-05-06T13:47:17.074Z,2.63
2019-05-06T13:49:24.950Z,4.47
2019-05-06T13:51:39.415Z,5.83
2019-05-06T13:53:46.166Z,3.87
2019-05-06T13:55:48.809Z,4.33
2019-05-06T13:57:52.471Z,4.07
2019-05-06T13:59:56.058Z,2.87
2019-05-06T14:02:06.566Z,4.37
2019-05-06T14:04:09.727Z,3.97
2019-05-06T14:06:13.625Z,3.20
2019-05-06T14:08:17.554Z,4.00
2019-05-06T14:10:22.255Z,4.67
2019-05-06T14:12:26.275Z,4.97
2019-05-06T14:14:32.175Z,4.47
2019-05-06T14:16:35.625Z,3.93
2019-05-06T14:18:39.546Z,2.87
2019-05-06T14:20:43.435Z,5.50
2019-05-06T14:22:47.239Z,5.10
2019-05-06T14:24:52.771Z,5.90
2019-05-06T14:26:59.092Z,5.50
2019-05-06T14:29:12.672Z,5.73
2019-05-06T14:31:17.512Z,5.00
2019-05-06T14:33:23.644Z,4.13
2019-05-06T14:35:27.347Z,6.03
2019-05-06T14:37:32.926Z,4.87
2019-05-06T14:39:49.984Z,3.67
2019-05-06T14:41:47.365Z,2.93
2019-05-06T14:43:52.775Z,3.47
2019-05-06T14:45:57.125Z,3.13
2019-05-06T14:48:03.292Z,3.60
2019-05-06T14:50:08.823Z,4.03
2019-05-06T14:52:13.334Z,4.77
2019-05-06T14:54:17.359Z,3.80
2019-05-06T14:56:25.777Z,3.20
2019-05-06T14:58:32.002Z,5.07
2019-05-06T15:00:35.313Z,3.77
2019-05-06T15:02:39.442Z,4.00
2019-05-06T15:04:43.779Z,4.97
2019-05-06T15:06:47.652Z,4.57
2019-05-06T15:08:51.545Z,7.40
2019-05-06T15:10:55.465Z,3.00
2019-05-06T15:12:59.270Z,5.03
2019-05-06T15:15:04.879Z,3.83
2019-05-06T15:17:08.424Z,4.63
2019-05-06T15:19:12.960Z,5.60
2019-05-06T15:21:36.201Z,4.57
2019-05-06T15:23:22.460Z,4.27
2019-05-06T15:25:26.480Z,4.80
2019-05-06T15:27:30.413Z,4.17
2019-05-06T15:29:34.299Z,3.37
2019-05-06T15:31:56.221Z,5.43
2019-05-06T15:34:06.819Z,4.30
2019-05-06T15:36:12.864Z,6.70
2019-05-06T15:38:18.382Z,3.90
2019-05-06T15:40:32.127Z,3.17
2019-05-06T15:42:29.063Z,6.93
2019-05-06T15:44:35.378Z,4.90
2019-05-06T15:46:38.719Z,6.13
2019-05-06T15:48:42.620Z,6.07
2019-05-06T15:50:46.535Z,4.27
2019-05-06T15:52:50.083Z,4.13
2019-05-06T15:54:53.610Z,3.40
2019-05-06T15:56:57.518Z,5.57
2019-05-06T15:59:02.656Z,6.10
2019-05-06T16:01:06.388Z,6.67
2019-05-06T16:03:12.777Z,3.87
2019-05-06T16:05:19.843Z,3.37
2019-05-06T16:07:25.451Z,3.57
2019-05-06T16:09:27.521Z,4.47
2019-05-06T16:11:32.946Z,5.70
2019-05-06T16:13:36.995Z,4.35
2019-05-06T16:15:42.314Z,5.20
2019-05-06T16:17:46.191Z,5.87
2019-05-06T16:19:49.723Z,6.30
2019-05-06T16:21:53.263Z,6.03
2019-05-06T16:24:02.455Z,5.63
2019-05-06T16:26:06.429Z,4.93
2019-05-06T16:28:09.984Z,3.43
2019-05-06T16:30:16.311Z,3.43
2019-05-06T16:32:21.989Z,3.87
2019-05-06T16:34:25.951Z,4.77
2019-05-06T16:36:32.185Z,6.07
2019-05-06T16:38:35.397Z,4.67
2019-05-06T16:40:45.427Z,4.90
2019-05-06T16:42:48.621Z,4.53
2019-05-06T16:44:52.837Z,5.40
2019-05-06T16:46:56.737Z,3.87
2019-05-06T16:49:02.377Z,3.37
2019-05-06T16:51:05.585Z,3.53
2019-05-06T16:53:09.393Z,3.40
2019-05-06T16:55:24.046Z,4.03
2019-05-06T16:57:27.474Z,3.50
2019-05-06T16:59:33.488Z,4.93
2019-05-06T17:01:38.845Z,3.87
2019-05-06T17:03:52.435Z,4.40
2019-05-06T17:06:02.825Z,4.30
2019-05-06T17:08:08.164Z,6.40
2019-05-06T17:10:11.969Z,6.70
2019-05-06T17:12:15.773Z,3.87
2019-05-06T17:14:19.570Z,3.37
2019-05-06T17:16:23.479Z,5.87
2019-05-06T17:18:28.366Z,4.47
2019-05-06T17:20:32.789Z,4.67
2019-05-06T17:22:36.569Z,7.20
2019-05-06T17:24:42.063Z,4.63
2019-05-06T17:26:45.764Z,5.50
2019-05-06T17:28:53.666Z,6.07
2019-05-06T17:30:59.213Z,7.87
2019-05-06T17:33:22.568Z,8.83
2019-05-06T17:35:26.578Z,7.43
2019-05-06T17:37:52.558Z,4.60
2019-05-06T17:40:06.889Z,4.83
2019-05-06T17:42:01.542Z,5.30
2019-05-06T17:44:06.096Z,5.73
2019-05-06T17:46:12.733Z,8.07
2019-05-06T17:48:23.125Z,4.87
2019-05-06T17:50:26.292Z,6.00
2019-05-06T17:52:29.823Z,7.23
2019-05-06T17:54:33.890Z,5.87
2019-05-06T17:56:37.800Z,7.67
2019-05-06T17:58:42.341Z,4.93
2019-05-06T18:00:46.181Z,7.80
2019-05-06T18:02:50.036Z,6.53
2019-05-06T18:04:53.912Z,5.90
2019-05-06T18:06:57.830Z,6.83
2019-05-06T18:09:02.569Z,6.80
2019-05-06T18:11:06.390Z,6.53
2019-05-06T18:13:12.567Z,6.63
2019-05-06T18:15:16.720Z,7.43
2019-05-06T18:17:22.029Z,8.07
2019-05-06T18:19:26.062Z,9.53
2019-05-06T18:21:29.976Z,8.50
2019-05-06T18:23:33.685Z,10.10
2019-05-06T18:25:37.682Z,13.53
2019-05-06T18:27:42.998Z,16.47
2019-05-06T18:29:47.257Z,39.27
2019-05-06T18:31:52.481Z,24.82
2019-05-06T18:33:56.594Z,20.20
2019-05-06T18:36:02.601Z,17.70
2019-05-06T18:38:07.886Z,16.37
2019-05-06T18:40:12.084Z,13.07
2019-05-06T18:42:20.183Z,12.63
2019-05-06T18:44:22.673Z,15.32
2019-05-06T18:46:27.074Z,14.25
2019-05-06T18:48:35.094Z,9.88
2019-05-06T18:50:38.778Z,9.90
2019-05-06T18:52:43.071Z,8.18
2019-05-06T18:54:47.334Z,10.00
2019-05-06T18:56:52.277Z,8.75
2019-05-06T18:58:56.455Z,7.70
2019-05-06T19:01:00.294Z,10.48
2019-05-06T19:03:04.467Z,8.75
2019-05-06T19:05:13.697Z,10.05
2019-05-06T19:07:17.912Z,9.78
2019-05-06T19:09:23.662Z,9.43
2019-05-06T19:11:27.823Z,8.93
2019-05-06T19:13:33.402Z,9.88
2019-05-06T19:15:37.753Z,9.80
2019-05-06T19:17:44.146Z,8.98
2019-05-06T19:19:48.011Z,10.88
2019-05-06T19:21:52.489Z,8.45
2019-05-06T19:23:56.742Z,10.45
2019-05-06T19:26:02.747Z,11.93
2019-05-06T19:28:06.788Z,8.58
2019-05-06T19:30:12.967Z,11.28
2019-05-06T19:32:17.175Z,10.58
2019-05-06T19:34:23.656Z,11.55
2019-05-06T19:36:27.232Z,12.25
2019-05-06T19:38:33.511Z,10.13
2019-05-06T19:40:38.330Z,10.43
2019-05-06T19:42:49.405Z,11.30
2019-05-06T19:44:48.378Z,9.55
2019-05-06T19:46:53.244Z,13.40
2019-05-06T19:48:57.534Z,12.85
2019-05-06T19:51:03.082Z,10.28
2019-05-06T19:53:07.160Z,10.32
2019-05-06T19:55:12.428Z,10.80
2019-05-06T19:57:16.232Z,13.10
2019-05-06T19:59:20.437Z,11.53
2019-05-06T20:01:24.742Z,11.55
2019-05-06T20:03:28.948Z,11.28
2019-05-06T20:05:41.874Z,13.65
2019-05-06T20:07:52.045Z,12.70
2019-05-06T20:09:57.568Z,11.78
2019-05-06T20:12:05.769Z,15.05
2019-05-06T20:14:09.884Z,12.70
2019-05-06T20:16:13.779Z,13.93
2019-05-06T20:18:17.620Z,13.18
2019-05-06T20:20:22.877Z,11.08
2019-05-06T20:22:27.101Z,14.55
2019-05-06T20:24:33.316Z,12.37
2019-05-06T20:26:36.840Z,13.22
2019-05-06T20:28:42.821Z,13.00
2019-05-06T20:30:46.568Z,13.20
2019-05-06T20:32:52.134Z,13.48
2019-05-06T20:34:56.410Z,12.60
2019-05-06T20:37:02.039Z,12.63
2019-05-06T20:39:07.814Z,11.48
2019-05-06T20:41:12.647Z,9.90
2019-05-06T20:43:20.789Z,10.93
2019-05-06T20:45:22.538Z,10.95
2019-05-06T20:47:26.421Z,14.75
2019-05-06T20:49:30.620Z,13.98
2019-05-06T20:51:34.840Z,14.25
2019-05-06T20:53:39.038Z,11.55
2019-05-06T20:55:43.553Z,13.90
2019-05-06T20:57:47.890Z,13.22
2019-05-06T20:59:52.645Z,13.18
2019-05-06T21:01:56.814Z,12.35
2019-05-06T21:04:02.249Z,11.48
2019-05-06T21:06:06.128Z,15.83
2019-05-06T21:08:09.988Z,13.93
2019-05-06T21:10:14.140Z,13.10
2019-05-06T21:12:17.964Z,12.25
2019-05-06T21:14:22.670Z,11.48
2019-05-06T21:16:26.933Z,11.03
2019-05-06T21:18:32.487Z,12.88
2019-05-06T21:20:36.536Z,14.35
2019-05-06T21:22:40.356Z,10.08
2019-05-06T21:24:44.473Z,9.85
2019-05-06T21:26:48.612Z,10.00
2019-05-06T21:28:52.824Z,11.43
2019-05-06T21:30:57.020Z,11.83
2019-05-06T21:33:02.359Z,12.00
2019-05-06T21:35:07.292Z,10.70
2019-05-06T21:37:12.244Z,9.93
2019-05-06T21:39:16.542Z,9.20
2019-05-06T21:41:22.180Z,10.70
2019-05-06T21:43:26.390Z,11.90
2019-05-06T21:45:32.890Z,10.15
2019-05-06T21:47:36.147Z,11.65
2019-05-06T21:49:42.170Z,11.75
2019-05-06T21:51:46.205Z,11.90
2019-05-06T21:53:50.428Z,10.65
2019-05-06T21:55:54.639Z,11.15
2019-05-06T21:57:58.756Z,11.55
2019-05-06T22:00:02.935Z,12.03
2019-05-06T22:02:09.010Z,11.73
2019-05-06T22:04:13.118Z,12.33
2019-05-06T22:06:17.057Z,10.32
2019-05-06T22:08:21.556Z,11.10
2019-05-06T22:10:27.169Z,9.95
2019-05-06T22:12:32.204Z,12.58
2019-05-06T22:14:36.126Z,12.60
2019-05-06T22:16:39.967Z,14.10
2019-05-06T22:18:45.633Z,10.72
2019-05-06T22:21:06.986Z,13.40
2019-05-06T22:23:14.400Z,11.60
2019-05-06T22:25:16.963Z,11.08
2019-05-06T22:27:22.164Z,10.48
2019-05-06T22:29:26.326Z,10.60
2019-05-06T22:31:30.411Z,11.55
2019-05-06T22:33:34.515Z,12.00
2019-05-06T22:35:38.735Z,12.40
2019-05-06T22:37:45.105Z,12.90
2019-05-06T22:39:48.395Z,10.88
2019-05-06T22:41:52.599Z,11.00
2019-05-06T22:43:56.729Z,14.15
2019-05-06T22:46:02.587Z,11.05
2019-05-06T22:48:06.560Z,12.50
2019-05-06T22:50:12.872Z,10.85
2019-05-06T22:52:16.839Z,10.48
2019-05-06T22:54:24.397Z,11.68
2019-05-06T22:56:26.611Z,13.38
2019-05-06T22:58:32.854Z,11.45
2019-05-06T23:00:38.023Z,11.15
2019-05-06T23:02:43.491Z,12.07
2019-05-06T23:04:49.281Z,11.18
2019-05-06T23:06:53.315Z,12.13
2019-05-06T23:08:58.800Z,11.57
2019-05-06T23:11:02.943Z,10.78
2019-05-06T23:13:07.059Z,12.82
2019-05-06T23:15:12.128Z,18.42
2019-05-06T23:17:16.399Z,11.03
2019-05-06T23:19:21.953Z,12.82
2019-05-06T23:21:26.367Z,11.38
2019-05-06T23:23:32.771Z,12.98
2019-05-06T23:25:36.431Z,14.63
2019-05-06T23:27:43.859Z,12.73
2019-05-06T23:29:45.811Z,10.63
2019-05-06T23:31:52.002Z,14.75
2019-05-06T23:33:55.827Z,11.93
2019-05-06T23:35:59.963Z,13.08
2019-05-06T23:38:40.121Z,12.85
2019-05-06T23:41:21.920Z,12.45
2019-05-06T23:44:02.976Z,13.20
2019-05-06T23:46:43.539Z,17.73
2019-05-06T23:49:23.793Z,15.03
2019-05-06T23:52:04.472Z,11.08
2019-05-06T23:54:45.081Z,13.13
2019-05-06T23:56:48.118Z,16.70
2019-05-06T23:58:52.434Z,16.40
